Time;durP1;ratioP1;P1;durP2;ratioP2;P2;SDS_P1;SDS_P2;PMS_P1;PMS_P2;Temp;Humidity;BMP_temperature;BMP_pressure;BME280_temperature;BME280_humidity;BME280_pressure;Samples;Min_cycle;Max_cycle;Signal;HPM_P1;HPM_P2
2021/12/09 00:01:01;;;;;;;;;;;;;;;5.43;59.16;99106.69;4446249;32;19988;-86
2021/12/09 00:03:31;;;;;;;;;;;;;;;5.75;58.38;99094.63;4408551;32;799094;-85
2021/12/09 00:05:59;;;;;;;;;;;;;;;5.72;58.41;99095.41;4436661;32;19981;-85
2021/12/09 00:08:27;;;;;;;;;;;;;;;5.89;57.82;99088.09;4446495;32;19985;-86
2021/12/09 00:10:56;;;;;;;;;;;;;;;5.43;59.18;99099.00;4446578;32;20318;-86
2021/12/09 00:13:23;;;;;;;;;;;;;;;5.48;59.08;99100.81;4432013;32;19985;-88
2021/12/09 00:15:50;;;;;;;;;;;;;;;5.56;58.87;99108.72;4446285;32;19988;-86
2021/12/09 00:18:17;;;;;;;;;;;;;;;5.34;59.51;99115.03;4446551;32;20334;-85
2021/12/09 00:20:44;;;;;;;;;;;;;;;5.33;59.54;99121.00;4446533;32;19989;-85
2021/12/09 00:23:11;;;;;;;;;;;;;;;5.02;60.70;99127.88;4450239;32;20334;-86
2021/12/09 00:25:38;;;;;;;;;;;;;;;5.18;60.41;99128.28;4443017;32;20094;-91
2021/12/09 00:28:04;;;;;;;;;;;;;;;5.36;59.40;99121.06;4454095;32;19996;-90
2021/12/09 00:30:32;;;;;;;;;;;;;;;5.36;59.46;99115.94;4419742;32;20015;-88
2021/12/09 00:33:00;;;;;;;;;;;;;;;5.40;59.43;99117.75;4426761;32;20334;-85
2021/12/09 00:35:32;;;;;;;;;;;;;;;5.42;59.34;99095.53;4435702;32;19989;-85
2021/12/09 00:38:06;;;;;;;;;;;;;;;5.37;59.36;99086.87;4430594;32;19986;-86
2021/12/09 00:40:33;;;;;;;;;;;;;;;5.03;60.10;99074.88;4429680;32;19986;-85
2021/12/09 00:43:00;;;;;;;;;;;;;;;5.04;60.43;99072.38;4435600;32;20004;-88
2021/12/09 00:45:27;;;;;;;;;;;;;;;5.11;60.33;99083.66;4430907;32;20027;-86
2021/12/09 00:47:54;;;;;;;;;;;;;;;5.15;60.24;99079.47;4433511;32;19984;-87
2021/12/09 00:50:21;;;;;;;;;;;;;;;5.18;60.08;99069.28;4432515;32;20025;-86
2021/12/09 00:52:48;;;;;;;;;;;;;;;5.13;60.24;99057.19;4454470;32;20345;-86
2021/12/09 00:55:15;;;;;;;;;;;;;;;5.00;60.41;99044.88;4433835;32;20357;-88
2021/12/09 00:57:43;;;;;;;;;;;;;;;5.02;60.55;99038.13;4432368;32;20816;-86
2021/12/09 01:00:14;;;;;;;;;;;;;;;5.08;60.43;99038.28;4430032;32;19986;-85
2021/12/09 01:02:41;;;;;;;;;;;;;;;4.79;61.32;99034.09;4454478;32;20015;-87
2021/12/09 01:05:09;;;;;;;;;;;;;;;4.87;61.27;99027.47;4429928;32;20384;-88
2021/12/09 01:07:36;;;;;;;;;;;;;;;4.76;61.61;99044.28;4430212;32;20453;-87
2021/12/09 01:10:04;;;;;;;;;;;;;;;4.72;61.92;99042.44;4430022;32;19985;-88
2021/12/09 01:12:31;;;;;;;;;;;;;;;4.73;61.91;99059.56;4454098;32;20040;-87
2021/12/09 01:14:57;;;;;;;;;;;;;;;4.75;61.72;99068.16;4430119;32;20496;-89
2021/12/09 01:17:24;;;;;;;;;;;;;;;4.64;62.18;99071.31;4430030;32;20016;-85
2021/12/09 01:19:53;;;;;;;;;;;;;;;4.55;62.54;99060.81;4430159;32;19984;-85
2021/12/09 01:22:20;;;;;;;;;;;;;;;4.69;61.97;99057.75;4430157;32;19974;-87
2021/12/09 01:24:47;;;;;;;;;;;;;;;4.45;62.70;99063.06;4429531;32;19985;-88
2021/12/09 01:27:13;;;;;;;;;;;;;;;4.75;61.78;99063.91;4433904;32;20615;-88
2021/12/09 01:29:50;;;;;;;4.35;4.05;;;;;;;4.90;61.32;99058.31;4430725;32;19973;-83
2021/12/09 01:32:24;;;;;;;;;;;;;;;4.96;60.83;99060.16;4428964;32;20676;-84
2021/12/09 01:34:50;;;;;;;;;;;;;;;4.90;61.15;99054.03;4431353;32;20199;-85
2021/12/09 01:37:18;;;;;;;;;;;;;;;5.33;59.72;99039.75;4433466;32;20309;-87
2021/12/09 01:39:45;;;;;;;;;;;;;;;5.44;59.47;99024.59;4429129;32;19978;-84
2021/12/09 01:42:12;;;;;;;;;;;;;;;5.52;58.77;99033.34;4436009;32;20789;-83
2021/12/09 01:44:39;;;;;;;;;;;;;;;5.39;59.20;99015.91;4429726;32;19981;-85
2021/12/09 01:47:06;;;;;;;;;;;;;;;5.45;58.96;99003.22;4431170;32;19981;-87
2021/12/09 01:49:33;;;;;;;;;;;;;;;5.24;59.57;99003.59;4433219;32;20489;-82
2021/12/09 01:52:00;;;;;;;;;;;;;;;5.23;59.61;99003.53;4429296;32;19986;-90
2021/12/09 01:54:27;;;;;;;;;;;;;;;5.15;59.82;98997.38;4438312;32;19989;-87
2021/12/09 01:56:54;;;;;;;6.10;5.70;;;;;;;5.09;60.05;98998.94;4434044;32;20674;-92
2021/12/09 01:59:21;;;;;;;0.00;0.00;;;;;;;4.95;60.71;98978.94;4441949;32;20366;-88
2021/12/09 02:01:48;;;;;;;;;;;;;;;4.95;60.63;98974.69;4250355;32;20284;-87
2021/12/09 02:04:16;;;;;;;;;;;;;;;4.96;60.50;98986.66;4380304;32;20004;-89
2021/12/09 02:06:42;;;;;;;;;;;;;;;5.09;60.06;98988.69;4418782;32;19985;-89
2021/12/09 02:09:13;;;;;;;;;;;;;;;4.93;60.46;98989.16;4436744;32;20040;-88
2021/12/09 02:11:40;;;;;;;;;;;;;;;4.84;60.79;98978.66;4430264;32;19973;-89
2021/12/09 02:14:08;;;;;;;;;;;;;;;4.82;60.87;98975.22;4438528;32;19985;-86
2021/12/09 02:16:35;;;;;;;;;;;;;;;4.84;60.57;98953.03;4432218;32;19986;-86
2021/12/09 02:19:03;;;;;;;;;;;;;;;4.86;60.51;98944.56;4431659;32;20007;-88
2021/12/09 02:21:31;;;;;;;;;;;;;;;4.66;61.14;98940.63;4431458;32;19989;-87
2021/12/09 02:24:04;;;;;;;2.30;2.20;;;;;;;4.77;60.78;98956.28;4438235;32;20263;-83
2021/12/09 02:26:35;;;;;;;;;;;;;;;4.57;61.39;98961.78;4431827;32;20157;-89
2021/12/09 02:29:04;;;;;;;0.00;0.00;;;;;;;4.47;61.67;98964.94;4430607;32;20322;-90
2021/12/09 02:31:32;;;;;;;0.00;0.00;;;;;;;4.34;62.40;98973.09;4430125;32;20636;-86
2021/12/09 02:34:00;;;;;;;0.00;0.00;;;;;;;4.53;61.59;98975.34;4439503;32;20304;-85
2021/12/09 02:36:29;;;;;;;0.00;0.00;;;;;;;4.43;61.95;98965.66;4441387;32;20624;-87
2021/12/09 02:38:57;;;;;;;0.00;0.00;;;;;;;4.36;62.12;98948.41;4430225;32;20264;-85
2021/12/09 02:41:26;;;;;;;0.00;0.00;;;;;;;4.46;62.10;98946.94;4430026;32;20333;-85
2021/12/09 02:43:57;;;;;;;0.00;0.00;;;;;;;4.64;61.25;98966.22;4400847;32;20747;-83
2021/12/09 02:46:25;;;;;;;0.00;0.00;;;;;;;4.66;60.98;98949.19;4429392;32;20290;-84
2021/12/09 02:48:53;;;;;;;0.00;0.00;;;;;;;4.19;62.66;98959.06;4436650;32;20279;-83
2021/12/09 02:51:20;;;;;;;0.00;0.00;;;;;;;4.26;62.48;99002.78;4417629;32;20326;-85
2021/12/09 02:53:47;;;;;;;0.00;0.00;;;;;;;4.57;61.57;98992.53;4416330;32;20272;-85
2021/12/09 02:56:14;;;;;;;0.00;0.00;;;;;;;4.59;61.30;98980.59;4415976;32;20293;-84
2021/12/09 02:58:41;;;;;;;0.00;0.00;;;;;;;4.57;61.44;98969.47;4415352;32;20340;-86
2021/12/09 03:01:25;;;;;;;0.00;0.00;;;;;;;4.62;61.44;98959.31;4414059;32;20278;-88
2021/12/09 03:03:58;;;;;;;0.00;0.00;;;;;;;4.60;61.53;98956.72;4412129;32;20305;-87
2021/12/09 03:06:38;;;;;;;0.00;0.00;;;;;;;4.63;61.40;98961.94;4413308;32;20898;-85
2021/12/09 03:09:09;;;;;;;0.00;0.00;;;;;;;4.23;62.75;98954.03;4414842;32;20293;-87
2021/12/09 03:11:36;;;;;;;0.00;0.00;;;;;;;4.59;61.71;98939.59;4424696;32;20375;-89
2021/12/09 03:14:03;;;;;;;0.20;0.20;;;;;;;4.29;62.63;98932.00;4414560;32;20281;-85
2021/12/09 03:16:31;;;;;;;0.32;0.32;;;;;;;4.28;62.85;98947.34;4413337;32;20274;-88
2021/12/09 03:19:05;;;;;;;0.30;0.30;;;;;;;4.33;62.76;98967.09;4412762;32;20703;-87
2021/12/09 03:21:38;;;;;;;0.43;0.43;;;;;;;4.12;63.39;98962.28;4412799;32;20327;-88
2021/12/09 03:24:08;;;;;;;0.20;0.20;;;;;;;4.49;62.40;98976.06;4412754;32;20612;-86
2021/12/09 03:27:01;;;;;;;0.15;0.15;;;;;;;4.34;62.81;98983.34;4414203;32;20788;-88
2021/12/09 03:29:29;;;;;;;0.45;0.45;;;;;;;4.65;61.88;98969.66;4413743;32;20261;-82
2021/12/09 03:32:02;;;;;;;0.40;0.40;;;;;;;4.82;61.31;98972.66;4421813;32;20299;-83
2021/12/09 03:34:32;;;;;;;0.25;0.25;;;;;;;4.64;61.71;98958.53;4428027;32;20577;-83
2021/12/09 03:37:01;;;;;;;0.20;0.20;;;;;;;4.66;61.88;98951.75;4429678;32;20284;-83
2021/12/09 03:39:32;;;;;;;2.12;2.05;;;;;;;4.65;61.90;98934.63;4429114;32;20279;-86
2021/12/09 03:41:59;;;;;;;0.30;0.30;;;;;;;4.64;62.06;98958.53;4429675;32;20656;-92
2021/12/09 03:44:28;;;;;;;0.40;0.40;;;;;;;4.95;60.94;98954.16;4429527;32;20326;-94
2021/12/09 03:46:57;;;;;;;0.53;0.53;;;;;;;4.71;61.73;98954.41;4430213;32;20288;-88
2021/12/09 03:49:25;;;;;;;0.20;0.20;;;;;;;4.90;61.30;98971.13;4433746;32;20260;-91
2021/12/09 03:51:52;;;;;;;0.40;0.40;;;;;;;4.74;61.55;98975.00;4415260;32;20738;-86
2021/12/09 03:54:20;;;;;;;0.55;0.55;;;;;;;5.01;60.88;98963.69;4416219;32;20256;-88
2021/12/09 03:56:47;;;;;;;0.40;0.40;;;;;;;4.94;61.19;98966.94;4441759;32;20323;-92
2021/12/09 03:59:15;;;;;;;0.60;0.60;;;;;;;4.92;61.06;98969.47;4444822;32;20748;-85
2021/12/09 04:01:43;;;;;;;0.50;0.50;;;;;;;4.79;61.69;98976.00;4457641;32;20280;-84
2021/12/09 04:04:11;;;;;;;0.30;0.30;;;;;;;4.73;61.85;98974.97;4445822;32;20268;-86
2021/12/09 04:06:42;;;;;;;0.62;0.62;;;;;;;4.68;61.95;98966.28;4460132;32;20286;-85
2021/12/09 04:09:11;;;;;;;0.30;0.30;;;;;;;5.05;60.72;98956.13;4452856;32;20317;-85
2021/12/09 04:11:38;;;;;;;0.30;0.30;;;;;;;4.97;61.14;98962.75;4446694;32;20273;-87
2021/12/09 04:14:05;;;;;;;0.40;0.40;;;;;;;4.74;61.78;98963.87;4444406;32;20290;-86
2021/12/09 04:16:32;;;;;;;0.30;0.30;;;;;;;5.07;60.90;98957.03;4451495;32;20270;-87
2021/12/09 04:18:59;;;;;;;0.40;0.40;;;;;;;5.08;60.46;98951.06;4445013;32;20270;-86
2021/12/09 04:21:26;;;;;;;0.30;0.30;;;;;;;5.23;60.23;98949.66;4446619;32;20648;-86
2021/12/09 04:23:54;;;;;;;0.20;0.20;;;;;;;5.32;59.90;98949.87;4448911;32;20296;-87
2021/12/09 04:26:21;;;;;;;0.30;0.30;;;;;;;5.44;59.63;98960.41;4430542;32;20707;-86
2021/12/09 04:28:48;;;;;;;0.40;0.40;;;;;;;4.95;60.61;98974.69;4430425;32;20318;-90
2021/12/09 04:31:16;;;;;;;0.40;0.40;;;;;;;5.10;60.47;98985.28;4444396;32;20262;-88
2021/12/09 04:33:44;;;;;;;0.80;0.80;;;;;;;4.83;60.86;98974.38;4444673;32;20346;-88
2021/12/09 04:36:11;;;;;;;0.45;0.45;;;;;;;5.25;60.01;98981.38;4456962;32;20290;-89
2021/12/09 04:38:41;;;;;;;0.30;0.30;;;;;;;5.11;60.44;98966.53;4454822;32;20248;-87
2021/12/09 04:41:07;;;;;;;0.65;0.65;;;;;;;5.20;60.04;98949.59;4459961;32;20408;-86
2021/12/09 04:43:35;;;;;;;0.57;0.57;;;;;;;5.01;60.65;98948.28;4455063;32;20316;-86
2021/12/09 04:46:03;;;;;;;0.82;0.82;;;;;;;4.94;61.02;98937.03;4433218;32;20300;-88
2021/12/09 04:48:30;;;;;;;1.25;1.25;;;;;;;4.89;61.29;98933.50;4451188;32;20308;-89
2021/12/09 04:50:57;;;;;;;0.77;0.77;;;;;;;4.93;61.09;98935.31;4448079;32;20294;-88
2021/12/09 04:53:25;;;;;;;0.80;0.80;;;;;;;5.02;60.58;98940.66;4444393;32;20321;-89
2021/12/09 04:55:51;;;;;;;0.88;0.88;;;;;;;5.13;60.24;98941.75;4444451;32;20331;-84
2021/12/09 04:58:19;;;;;;;0.80;0.80;;;;;;;5.18;60.15;98935.88;4444311;32;20340;-89
2021/12/09 05:00:48;;;;;;;0.85;0.85;;;;;;;5.35;59.53;98929.41;4444231;32;20351;-87
2021/12/09 05:03:16;;;;;;;0.70;0.70;;;;;;;5.23;59.98;98924.91;4435557;32;20283;-86
2021/12/09 05:05:48;;;;;;;1.00;1.00;;;;;;;5.12;60.33;98927.22;4443370;32;20270;-85
2021/12/09 05:08:22;;;;;;;0.62;0.62;;;;;;;5.18;59.94;98941.03;4447152;32;20716;-88
2021/12/09 05:13:23;;;;;;;0.50;0.50;;;;;;;5.18;59.94;98941.03;4427361;32;20270;-86
2021/12/09 05:15:51;;;;;;;0.60;0.60;;;;;;;5.25;59.69;98932.63;4411896;32;20279;-88
2021/12/09 05:18:18;;;;;;;0.70;0.70;;;;;;;5.03;60.33;98950.06;4398702;32;20266;-88
2021/12/09 05:20:46;;;;;;;0.50;0.50;;;;;;;5.45;59.05;98945.88;4400495;32;20305;-86
2021/12/09 05:23:15;;;;;;;0.50;0.50;;;;;;;5.49;58.86;98943.44;4417640;32;20753;-82
2021/12/09 05:25:42;;;;;;;0.30;0.30;;;;;;;5.69;58.33;98945.56;4403644;32;20285;-77
2021/12/09 05:28:12;;;;;;;0.30;0.30;;;;;;;5.62;58.46;98933.44;4417796;32;20313;-77
2021/12/09 05:32:07;;;;;;;0.37;0.37;;;;;;;5.30;58.97;98936.16;4413298;32;20370;-77
2021/12/09 05:33:27;;;;;;;0.50;0.50;;;;;;;5.40;58.99;98927.84;4419406;32;20286;-77
2021/12/09 05:35:55;;;;;;;0.40;0.40;;;;;;;5.45;58.87;98936.47;4418069;32;20273;-77
2021/12/09 05:38:22;;;;;;;0.60;0.60;;;;;;;5.35;58.98;98929.41;4417854;32;20277;-77
2021/12/09 05:40:49;;;;;;;0.50;0.50;;;;;;;5.37;58.89;98917.50;4414033;32;20333;-77
2021/12/09 05:43:17;;;;;;;0.40;0.40;;;;;;;5.47;58.71;98904.03;4415015;32;20319;-78
2021/12/09 05:45:46;;;;;;;0.60;0.60;;;;;;;5.45;58.85;98900.56;4420846;32;20323;-77
2021/12/09 05:48:14;;;;;;;0.40;0.40;;;;;;;5.24;59.24;98906.09;4399970;32;20334;-77
2021/12/09 05:50:41;;;;;;;0.35;0.35;;;;;;;5.53;58.29;98893.03;4405850;32;20923;-78
2021/12/09 05:53:08;;;;;;;0.85;0.85;;;;;;;5.17;59.23;98885.38;4400878;32;20303;-79
2021/12/09 05:55:36;;;;;;;0.70;0.70;;;;;;;4.97;60.23;98880.69;4388321;32;20349;-79
2021/12/09 05:58:03;;;;;;;1.20;1.20;;;;;;;4.80;60.85;98876.88;4414636;32;20663;-79
2021/12/09 06:00:30;;;;;;;1.12;1.12;;;;;;;4.80;60.64;98872.63;4400299;32;20771;-80
2021/12/09 06:02:57;;;;;;;0.70;0.70;;;;;;;5.01;60.16;98871.34;4414596;32;20282;-79
2021/12/09 06:05:24;;;;;;;0.83;0.83;;;;;;;5.05;60.04;98874.03;4414703;32;20337;-78
2021/12/09 06:07:51;;;;;;;0.90;0.90;;;;;;;4.89;60.56;98872.81;4414306;32;20315;-80
2021/12/09 06:10:18;;;;;;;0.75;0.75;;;;;;;5.10;60.28;98882.69;4414882;32;20293;-79
2021/12/09 06:12:45;;;;;;;0.90;0.90;;;;;;;4.89;60.76;98877.09;4395830;32;21162;-80
2021/12/09 06:15:12;;;;;;;0.90;0.90;;;;;;;4.94;60.87;98865.22;4414530;32;20339;-79
2021/12/09 06:17:39;;;;;;;0.68;0.68;;;;;;;4.90;60.95;98864.28;4414660;32;20269;-79
2021/12/09 06:20:06;;;;;;;1.48;1.48;;;;;;;4.89;61.30;98866.84;4413582;32;20300;-78
2021/12/09 06:22:35;;;;;;;1.00;1.00;;;;;;;5.10;60.54;98867.28;4412910;32;20430;-78
2021/12/09 06:25:04;;;;;;;0.47;0.47;;;;;;;5.23;60.34;98852.19;4414218;32;20631;-79
2021/12/09 06:27:31;;;;;;;0.85;0.85;;;;;;;4.97;61.01;98855.03;4406569;32;20275;-77
2021/12/09 06:29:58;;;;;;;4.17;3.97;;;;;;;4.96;61.07;98847.31;4413109;32;20283;-79
2021/12/09 06:32:26;;;;;;;1.00;1.00;;;;;;;4.85;61.49;98854.75;4429533;32;20336;-79
2021/12/09 06:34:53;;;;;;;0.68;0.68;;;;;;;4.97;61.07;98839.66;4429603;32;20413;-78
2021/12/09 06:37:20;;;;;;;0.57;0.57;;;;;;;4.93;61.21;98848.13;4434503;32;20600;-78
2021/12/09 06:39:47;;;;;;;0.90;0.90;;;;;;;4.99;61.31;98848.25;4427914;32;20283;-79
2021/12/09 06:42:16;;;;;;;0.50;0.50;;;;;;;4.92;61.29;98833.56;4436394;32;20276;-77
2021/12/09 06:44:44;;;;;;;0.80;0.80;;;;;;;5.02;61.00;98838.06;4429051;32;20275;-80
2021/12/09 06:47:11;;;;;;;0.70;0.70;;;;;;;5.14;60.80;98852.88;4435162;32;20274;-81
2021/12/09 06:49:38;;;;;;;0.50;0.50;;;;;;;5.24;60.37;98848.81;4435970;32;20730;-80
2021/12/09 06:52:05;;;;;;;0.60;0.60;;;;;;;5.50;59.44;98852.75;4414242;32;20302;-82
2021/12/09 06:54:34;;;;;;;2.60;2.50;;;;;;;5.42;59.64;98849.16;4421375;32;20303;-83
2021/12/09 06:57:02;;;;;;;0.47;0.47;;;;;;;5.27;60.04;98866.81;4421717;32;20306;-84
2021/12/09 06:59:28;;;;;;;3.03;2.87;;;;;;;5.45;59.54;98869.75;4417236;32;20991;-82
2021/12/09 07:01:56;;;;;;;0.57;0.57;;;;;;;5.35;59.56;98868.69;4442861;32;20357;-83
2021/12/09 07:04:23;;;;;;;0.47;0.47;;;;;;;5.45;59.30;98880.03;4445361;32;20278;-83
2021/12/09 07:06:50;;;;;;;0.70;0.70;;;;;;;5.49;58.95;98875.84;4445009;32;20266;-79
2021/12/09 07:09:17;;;;;;;0.60;0.60;;;;;;;5.24;59.72;98875.31;4444891;32;20270;-80
2021/12/09 07:11:48;;;;;;;0.57;0.57;;;;;;;5.23;59.82;98872.69;4444883;32;20353;-81
2021/12/09 07:14:15;;;;;;;1.20;1.20;;;;;;;5.13;60.20;98881.91;4444743;32;20353;-80
2021/12/09 07:16:42;;;;;;;0.47;0.47;;;;;;;5.07;60.65;98877.53;4440110;32;20281;-81
2021/12/09 07:19:09;;;;;;;0.65;0.65;;;;;;;5.13;60.25;98887.87;4435856;32;20782;-77
2021/12/09 07:21:36;;;;;;;0.70;0.70;;;;;;;5.08;60.30;98884.38;4435674;32;21247;-78
2021/12/09 07:24:03;;;;;;;0.77;0.77;;;;;;;5.08;60.63;98884.38;4429517;32;20284;-82
2021/12/09 07:26:32;;;;;;;0.97;0.97;;;;;;;5.22;59.87;98866.72;4429035;32;20265;-81
2021/12/09 07:28:59;;;;;;;1.17;1.17;;;;;;;4.96;60.51;98858.44;4435625;32;20566;-80
2021/12/09 07:31:27;;;;;;;1.08;1.08;;;;;;;5.09;60.21;98860.44;4429454;32;20725;-80
2021/12/09 07:33:56;;;;;;;1.37;1.37;;;;;;;5.18;60.03;98853.81;4415022;32;20693;-79
2021/12/09 07:36:24;;;;;;;1.40;1.40;;;;;;;4.78;61.36;98840.06;4417689;32;20266;-81
2021/12/09 07:38:51;;;;;;;1.27;1.27;;;;;;;4.95;60.74;98851.59;4408835;32;20777;-80
2021/12/09 07:41:19;;;;;;;2.70;2.60;;;;;;;4.95;60.96;98856.72;4421574;32;20686;-79
2021/12/09 07:43:46;;;;;;;1.90;1.80;;;;;;;4.70;61.59;98857.84;4412844;32;20792;-80
2021/12/09 07:46:13;;;;;;;2.65;2.55;;;;;;;4.78;61.59;98852.88;4417935;32;20264;-81
2021/12/09 07:48:40;;;;;;;2.28;2.17;;;;;;;4.90;61.42;98838.66;4422426;32;20291;-80
2021/12/09 07:51:07;;;;;;;2.42;2.33;;;;;;;5.06;60.90;98839.84;4419392;32;20276;-80
2021/12/09 07:53:34;;;;;;;2.37;2.28;;;;;;;5.05;61.19;98822.75;4422171;32;20281;-81
2021/12/09 07:56:01;;;;;;;1.85;1.75;;;;;;;5.08;60.90;98838.22;4423124;32;20292;-78
2021/12/09 07:58:35;;;;;;;16.50;14.90;;;;;;;5.11;60.96;98832.28;4425827;32;20271;-80
2021/12/09 08:01:03;;;;;;;143.32;122.87;;;;;;;5.04;61.21;98826.16;4409537;32;20331;-80
2021/12/09 08:03:31;;;;;;;119.68;107.80;;;;;;;5.00;61.26;98824.34;4420619;32;20272;-81
2021/12/09 08:05:57;;;;;;;2.42;2.33;;;;;;;4.93;61.84;98830.16;4422611;32;20263;-79
2021/12/09 08:08:24;;;;;;;130.48;116.68;;;;;;;4.79;62.07;98824.75;4420824;32;20793;-79
2021/12/09 08:10:52;;;;;;;141.20;122.45;;;;;;;4.62;62.75;98816.66;4419602;32;20317;-80
2021/12/09 08:13:22;;;;;;;166.57;131.90;;;;;;;4.72;62.50;98811.72;4419907;32;20280;-80
2021/12/09 08:15:51;;;;;;;131.70;117.60;;;;;;;4.53;63.08;98830.94;4408702;32;20665;-80
2021/12/09 08:18:53;;;;;;;141.73;122.78;;;;;;;4.89;61.99;98815.56;4428084;32;20708;-80
2021/12/09 08:21:22;;;;;;;127.05;113.88;;;;;;;4.70;62.00;98828.78;4429079;32;20267;-80
2021/12/09 08:23:51;;;;;;;122.00;109.80;;;;;;;4.58;62.93;98830.22;4414403;32;20282;-81
2021/12/09 08:26:20;;;;;;;128.15;114.85;;;;;;;4.56;62.64;98829.34;4435666;32;20260;-81
2021/12/09 08:28:49;;;;;;;75.70;68.40;;;;;;;4.79;62.47;98829.00;4405444;32;20695;-80
2021/12/09 08:31:16;;;;;;;129.07;115.50;;;;;;;4.46;62.66;98829.94;4435092;32;20275;-80
2021/12/09 08:33:43;;;;;;;143.80;123.18;;;;;;;4.45;63.47;98828.22;4414610;32;20362;-80
2021/12/09 08:36:32;;;;;;;134.55;119.70;;;;;;;4.58;63.19;98809.72;4427588;32;20275;-78
2021/12/09 08:38:59;;;;;;;123.45;110.95;;;;;;;4.86;62.01;98805.22;4435217;32;20337;-79
2021/12/09 08:41:26;;;;;;;2.47;2.37;;;;;;;4.82;62.33;98808.56;4428693;32;20276;-79
2021/12/09 08:43:53;;;;;;;1.85;1.75;;;;;;;4.92;61.61;98805.37;4432986;32;20399;-80
2021/12/09 08:46:20;;;;;;;2.47;2.37;;;;;;;4.84;62.18;98814.56;4413170;32;21166;-80
2021/12/09 08:48:47;;;;;;;2.60;2.50;;;;;;;4.90;62.37;98812.16;4435448;32;20300;-79
2021/12/09 08:51:15;;;;;;;2.12;2.03;;;;;;;4.99;61.86;98796.97;4431475;32;20282;-79
2021/12/09 08:53:43;;;;;;;2.37;2.28;;;;;;;5.10;61.70;98795.47;4431402;32;20342;-80
2021/12/09 08:56:10;;;;;;;2.53;2.42;;;;;;;4.87;62.22;98796.69;4414716;32;20268;-80
2021/12/09 08:58:38;;;;;;;22.05;19.90;;;;;;;4.98;61.86;98795.25;4425897;32;20296;-80
2021/12/09 09:01:05;;;;;;;2.37;2.28;;;;;;;4.93;61.74;98801.97;4412805;32;20282;-79
2021/12/09 09:03:32;;;;;;;1.95;1.85;;;;;;;4.82;62.23;98798.31;4416866;32;20279;-79
2021/12/09 09:06:01;;;;;;;2.00;1.90;;;;;;;4.81;63.06;98801.69;4436801;32;20276;-80
2021/12/09 09:08:28;;;;;;;2.65;2.55;;;;;;;4.77;62.86;98812.72;4430301;32;20284;-80
2021/12/09 09:10:55;;;;;;;1.80;1.70;;;;;;;5.01;62.27;98795.31;4430423;32;20339;-80
2021/12/09 09:13:23;;;;;;;2.10;2.00;;;;;;;4.89;62.33;98813.00;4433800;32;20278;-79
2021/12/09 09:15:50;;;;;;;2.37;2.28;;;;;;;4.96;62.38;98812.28;4432948;32;20343;-79
2021/12/09 09:18:18;;;;;;;2.20;2.10;;;;;;;5.04;62.15;98815.00;4430374;32;20325;-81
2021/12/09 09:20:46;;;;;;;2.30;2.20;;;;;;;4.87;62.29;98817.22;4416127;32;20272;-79
2021/12/09 09:23:16;;;;;;;2.60;2.50;;;;;;;4.87;63.20;98812.09;4431295;32;20330;-80
2021/12/09 09:25:45;;;;;;;1.73;1.62;;;;;;;4.93;63.02;98832.72;4435274;32;20802;-80
2021/12/09 09:28:13;;;;;;;2.65;2.55;;;;;;;4.72;63.57;98822.00;4435410;32;20631;-79
2021/12/09 09:30:45;;;;;;;20.55;18.60;;;;;;;4.79;63.42;98827.31;4414886;32;20272;-79
2021/12/09 09:33:15;;;;;;;139.40;121.15;;;;;;;5.02;63.14;98806.44;4426060;32;20273;-79
2021/12/09 09:35:43;;;;;;;122.82;110.10;;;;;;;5.04;62.87;98791.91;4430389;32;20310;-78
2021/12/09 09:38:11;;;;;;;133.90;119.05;;;;;;;5.12;62.56;98783.56;4405872;32;20282;-80
2021/12/09 09:40:49;;;;;;;2.03;1.92;;;;;;;5.05;63.03;98781.72;4418888;32;20300;-79
2021/12/09 09:46:05;;;;;;;98.28;88.20;;;;;;;5.02;63.23;98766.25;4428423;32;20414;-79
2021/12/09 09:48:33;;;;;;;2.45;2.35;;;;;;;5.03;63.01;98747.47;4437004;32;20292;-80
2021/12/09 09:51:03;;;;;;;130.97;116.07;;;;;;;5.01;63.95;98751.72;4416170;32;20309;-80
2021/12/09 09:53:30;;;;;;;47.17;42.42;;;;;;;5.03;64.08;98750.03;4430890;32;20280;-79
2021/12/09 09:55:57;;;;;;;113.15;101.53;;;;;;;4.97;64.01;98747.34;4435492;32;20256;-77
2021/12/09 09:58:25;;;;;;;152.37;125.33;;;;;;;4.86;64.23;98741.13;4429778;32;20285;-78
2021/12/09 10:00:52;;;;;;;171.00;132.43;;;;;;;5.01;64.10;98738.00;4435993;32;20270;-78
2021/12/09 10:03:19;;;;;;;163.90;129.52;;;;;;;4.76;64.42;98726.41;4429982;32;21100;-78
2021/12/09 10:05:48;;;;;;;154.05;127.40;;;;;;;4.96;64.62;98734.50;4426450;32;20285;-80
2021/12/09 10:08:17;;;;;;;135.18;120.28;;;;;;;5.08;63.94;98717.66;4436464;32;20633;-78
2021/12/09 10:10:46;;;;;;;125.97;112.88;;;;;;;5.19;63.28;98724.69;4429919;32;20283;-79
2021/12/09 10:13:14;;;;;;;2.50;2.40;;;;;;;5.23;63.91;98723.91;4429690;32;20339;-80
2021/12/09 10:15:52;;;;;;;2.05;1.95;;;;;;;5.39;63.40;98720.78;4429682;32;20329;-78
2021/12/09 10:18:36;;;;;;;1.40;1.40;;;;;;;5.36;62.93;98705.37;4423267;32;20294;-78
2021/12/09 10:21:05;;;;;;;1.50;1.50;;;;;;;5.43;63.10;98707.19;4415189;32;20295;-79
2021/12/09 10:23:39;;;;;;;1.65;1.58;;;;;;;5.71;62.41;98712.81;4436595;32;20913;-81
2021/12/09 10:26:14;;;;;;;1.70;1.60;;;;;;;5.73;62.29;98711.13;4430329;32;20297;-81
2021/12/09 10:28:54;;;;;;;1.20;1.20;;;;;;;5.65;62.18;98707.56;4430248;32;20299;-79
2021/12/09 10:31:36;;;;;;;1.48;1.48;;;;;;;5.65;61.35;98699.84;4429632;32;20625;-80
2021/12/09 10:34:13;;;;;;;1.40;1.40;;;;;;;5.17;63.10;98703.25;4434721;32;20276;-81
2021/12/09 10:36:47;;;;;;;1.48;1.48;;;;;;;5.40;62.42;98709.72;4430187;32;20346;-79
2021/12/09 10:39:22;;;;;;;1.00;1.00;;;;;;;5.13;63.62;98712.59;4429731;32;20298;-78
2021/12/09 10:41:51;;;;;;;1.52;1.48;;;;;;;5.40;62.85;98721.69;4430233;32;20329;-80
2021/12/09 10:44:29;;;;;;;1.20;1.20;;;;;;;5.41;62.61;98719.13;4433381;32;20751;-81
2021/12/09 10:47:06;;;;;;;1.47;1.43;;;;;;;5.18;63.63;98720.41;4416486;32;20323;-79
2021/12/09 10:49:45;;;;;;;0.90;0.90;;;;;;;5.19;63.93;98706.72;4419678;32;20347;-79
2021/12/09 10:52:26;;;;;;;2.28;2.17;;;;;;;5.60;62.65;98721.19;4422816;32;20272;-79
2021/12/09 10:54:55;;;;;;;1.73;1.62;;;;;;;5.60;62.57;98713.50;4434946;32;20295;-80
2021/12/09 10:57:29;;;;;;;1.70;1.60;;;;;;;5.68;62.48;98708.50;4429306;32;20331;-82
2021/12/09 10:59:58;;;;;;;1.42;1.42;;;;;;;5.66;62.42;98706.75;4418368;32;20279;-80
2021/12/09 11:02:25;;;;;;;1.90;1.80;;;;;;;5.67;62.26;98711.03;4416721;32;20523;-79
2021/12/09 11:05:04;;;;;;;1.40;1.40;;;;;;;5.48;63.29;98705.56;4429653;32;20294;-81
2021/12/09 11:07:32;;;;;;;1.20;1.20;;;;;;;5.29;64.23;98703.50;4430089;32;20275;-79
2021/12/09 11:10:17;;;;;;;2.00;1.90;;;;;;;5.64;62.81;98695.56;4432353;32;20284;-82
2021/12/09 11:12:51;;;;;;;1.40;1.40;;;;;;;5.63;62.70;98706.69;4445581;32;20295;-83
2021/12/09 11:15:19;;;;;;;1.43;1.43;;;;;;;5.56;63.14;98704.00;4445173;32;20265;-80
2021/12/09 11:17:50;;;;;;;1.77;1.67;;;;;;;5.39;63.51;98694.28;4445097;32;20993;-84
2021/12/09 11:20:43;;;;;;;1.50;1.50;;;;;;;5.54;63.49;98692.84;4443796;32;20320;-83
2021/12/09 11:23:32;;;;;;;1.20;1.20;;;;;;;5.71;62.99;98688.03;4431456;32;20316;-82
2021/12/09 11:26:52;;;;;;;1.45;1.45;;;;;;;5.67;62.55;98675.09;4411366;32;20349;-81
2021/12/09 11:29:37;;;;;;;1.83;1.73;;;;;;;5.83;62.10;98662.50;4432496;32;20259;-83
2021/12/09 11:34:47;;;;;;;1.60;1.50;;;;;;;5.54;63.61;98664.59;4429238;32;20398;-83
2021/12/09 11:40:40;;;;;;;131.20;116.85;;;;;;;5.71;63.25;98662.34;4423306;32;20330;-83
2021/12/09 11:43:10;;;;;;;1.67;1.60;;;;;;;5.69;62.44;98668.28;4408191;32;20790;-83
2021/12/09 11:45:40;;;;;;;1.80;1.70;;;;;;;5.87;62.39;98663.47;4421001;32;20324;-84
2021/12/09 11:48:09;;;;;;;2.23;2.13;;;;;;;5.74;62.94;98666.63;4435527;32;20665;-84
2021/12/09 11:50:39;;;;;;;1.67;1.58;;;;;;;5.96;62.25;98658.47;4429003;32;20661;-82
2021/12/09 11:53:10;;;;;;;1.42;1.42;;;;;;;5.50;64.05;98665.41;4436140;32;20341;-83
2021/12/09 11:55:42;;;;;;;1.30;1.30;;;;;;;5.75;63.91;98655.56;4435107;32;20333;-83
2021/12/09 11:58:27;;;;;;;1.40;1.40;;;;;;;6.10;62.19;98655.28;4435795;32;20764;-84
2021/12/09 12:12:48;;;;;;;7.85;7.45;;;;;;;6.27;61.70;98634.09;4401400;32;20355;-87
2021/12/09 12:21:16;;;;;;;0.15;0.15;;;;;;;5.95;63.07;98628.50;4424523;32;20353;-82
2021/12/09 12:23:58;;;;;;;;;;;;;;;6.07;62.98;98629.53;4424591;32;20631;-79
2021/12/09 12:29:42;;;;;;;;;;;;;;;6.28;61.99;98628.09;4411348;32;19993;-81
2021/12/09 12:40:39;;;;;;;;;;;;;;;6.09;62.67;98622.69;4433799;32;20341;-82
2021/12/09 12:43:16;;;;;;;;;;;;;;;5.95;62.99;98620.78;4432108;32;20316;-88
2021/12/09 12:45:53;;;;;;;;;;;;;;;6.01;63.03;98636.28;4429859;32;19981;-84